CFG4FA LSZH-EDDF
Flight info
| Callsign | CFG4FA |
|---|---|
| Flight time | 0h 37m |
| Altitude | 20000 |
| Route | DEGES Z1 SUDEN T164 KOVAN T163 SPESA SPESA5B |
| Aircraft | A321/M-SDE3FGHIRWY/LB1 |
Departure
| Time | 2026-05-05 09:39 |
|---|---|
| Airport | Zürich Airport (LSZH) |
Arrival
| Time | 2026-05-05 10:16 |
|---|---|
| Airport | Frankfurt Main Airport (EDDF) |
| Time | Latitude | Longitude | Altitude | Speed | Heading |
|---|---|---|---|---|---|
| 2026-05-05 09:19 | 47.45410 | 8.56118 | 1412 ft | 0 kts | 186° |
| 2026-05-05 09:32 | 47.45411 | 8.56118 | 1407 ft | 1 kts | 186° |
| 2026-05-05 09:32 | 47.45435 | 8.56125 | 1419 ft | 4 kts | 191° |
| 2026-05-05 09:32 | 47.45459 | 8.56124 | 1409 ft | 3 kts | 156° |
| 2026-05-05 09:33 | 47.45479 | 8.56105 | 1410 ft | 4 kts | 117° |
| 2026-05-05 09:33 | 47.45486 | 8.56073 | 1407 ft | 1 kts | 96° |
| 2026-05-05 09:33 | 47.45486 | 8.56072 | 1407 ft | 0 kts | 96° |
| 2026-05-05 09:35 | 47.45477 | 8.56191 | 1410 ft | 9 kts | 90° |
| 2026-05-05 09:35 | 47.45518 | 8.56288 | 1416 ft | 14 kts | 51° |
| 2026-05-05 09:36 | 47.45580 | 8.56399 | 1416 ft | 13 kts | 51° |
| 2026-05-05 09:36 | 47.45592 | 8.56516 | 1415 ft | 14 kts | 96° |
| 2026-05-05 09:36 | 47.45579 | 8.56691 | 1418 ft | 21 kts | 96° |
| 2026-05-05 09:36 | 47.45565 | 8.56897 | 1420 ft | 14 kts | 95° |
| 2026-05-05 09:37 | 47.45585 | 8.57005 | 1423 ft | 12 kts | 34° |
| 2026-05-05 09:37 | 47.45646 | 8.57021 | 1425 ft | 7 kts | 0° |
| 2026-05-05 09:37 | 47.45664 | 8.56987 | 1424 ft | 4 kts | 284° |
| 2026-05-05 09:37 | 47.45665 | 8.56974 | 1424 ft | 0 kts | 277° |
| 2026-05-05 09:38 | 47.45669 | 8.56918 | 1423 ft | 30 kts | 277° |
| 2026-05-05 09:38 | 47.45717 | 8.56242 | 1417 ft | 99 kts | 276° |
| 2026-05-05 09:38 | 47.45809 | 8.54948 | 1391 ft | 152 kts | 276° |
| 2026-05-05 09:38 | 47.45925 | 8.53221 | 1583 ft | 175 kts | 273° |
| 2026-05-05 09:39 | 47.46043 | 8.51465 | 2323 ft | 171 kts | 275° |
| 2026-05-05 09:39 | 47.46168 | 8.49709 | 2989 ft | 172 kts | 276° |
| 2026-05-05 09:39 | 47.46141 | 8.47895 | 3388 ft | 188 kts | 249° |
| 2026-05-05 09:39 | 47.45449 | 8.46145 | 3566 ft | 208 kts | 238° |
| 2026-05-05 09:40 | 47.44695 | 8.44221 | 3858 ft | 221 kts | 241° |
| 2026-05-05 09:40 | 47.43958 | 8.42199 | 4367 ft | 225 kts | 242° |
| 2026-05-05 09:40 | 47.43232 | 8.40136 | 4888 ft | 228 kts | 242° |
| 2026-05-05 09:40 | 47.42390 | 8.38141 | 5427 ft | 230 kts | 223° |
| 2026-05-05 09:41 | 47.41033 | 8.37025 | 6064 ft | 228 kts | 190° |
| 2026-05-05 09:41 | 47.39473 | 8.37180 | 6682 ft | 227 kts | 158° |
| 2026-05-05 09:41 | 47.38223 | 8.38555 | 7245 ft | 228 kts | 127° |
| 2026-05-05 09:41 | 47.37681 | 8.40751 | 7787 ft | 234 kts | 94° |
| 2026-05-05 09:42 | 47.38024 | 8.43130 | 8234 ft | 247 kts | 68° |
| 2026-05-05 09:42 | 47.38805 | 8.45511 | 8426 ft | 267 kts | 66° |
| 2026-05-05 09:42 | 47.39672 | 8.48061 | 8758 ft | 286 kts | 65° |
| 2026-05-05 09:42 | 47.40584 | 8.50707 | 9434 ft | 291 kts | 65° |
| 2026-05-05 09:43 | 47.41515 | 8.53394 | 10049 ft | 299 kts | 65° |
| 2026-05-05 09:43 | 47.42490 | 8.56243 | 10215 ft | 322 kts | 66° |
| 2026-05-05 09:43 | 47.43542 | 8.59296 | 10345 ft | 345 kts | 62° |
| 2026-05-05 09:43 | 47.45128 | 8.62108 | 10470 ft | 370 kts | 40° |
| 2026-05-05 09:44 | 47.47462 | 8.63920 | 10598 ft | 392 kts | 16° |
| 2026-05-05 09:44 | 47.50183 | 8.64826 | 10756 ft | 409 kts | 12° |
| 2026-05-05 09:44 | 47.52997 | 8.65677 | 11190 ft | 416 kts | 11° |
| 2026-05-05 09:44 | 47.55851 | 8.66528 | 11717 ft | 421 kts | 11° |
| 2026-05-05 09:45 | 47.58739 | 8.67391 | 12248 ft | 425 kts | 11° |
| 2026-05-05 09:45 | 47.61650 | 8.68275 | 12770 ft | 429 kts | 11° |
| 2026-05-05 09:45 | 47.64590 | 8.69181 | 13297 ft | 434 kts | 11° |
| 2026-05-05 09:45 | 47.67559 | 8.70104 | 13822 ft | 438 kts | 11° |
| 2026-05-05 09:46 | 47.70551 | 8.71038 | 14338 ft | 441 kts | 12° |
| 2026-05-05 09:46 | 47.73560 | 8.71977 | 14882 ft | 443 kts | 12° |
| 2026-05-05 09:46 | 47.76590 | 8.72917 | 15374 ft | 446 kts | 12° |
| 2026-05-05 09:46 | 47.79634 | 8.73862 | 15849 ft | 449 kts | 12° |
| 2026-05-05 09:47 | 47.82703 | 8.74820 | 16300 ft | 452 kts | 12° |
| 2026-05-05 09:47 | 47.85792 | 8.75785 | 16762 ft | 455 kts | 12° |
| 2026-05-05 09:47 | 47.88901 | 8.76757 | 17225 ft | 458 kts | 12° |
| 2026-05-05 09:47 | 47.92028 | 8.77736 | 17708 ft | 460 kts | 12° |
| 2026-05-05 09:48 | 47.95173 | 8.78721 | 18180 ft | 463 kts | 12° |
| 2026-05-05 09:48 | 47.98340 | 8.79714 | 18579 ft | 466 kts | 12° |
| 2026-05-05 09:48 | 48.01521 | 8.80710 | 18988 ft | 468 kts | 12° |
| 2026-05-05 09:48 | 48.04715 | 8.81712 | 19397 ft | 471 kts | 12° |
| 2026-05-05 09:49 | 48.07930 | 8.82723 | 19820 ft | 473 kts | 12° |
| 2026-05-05 09:49 | 48.11157 | 8.83742 | 20218 ft | 475 kts | 12° |
| 2026-05-05 09:49 | 48.14395 | 8.84767 | 20635 ft | 477 kts | 12° |
| 2026-05-05 09:49 | 48.17652 | 8.85797 | 21040 ft | 479 kts | 12° |
| 2026-05-05 09:50 | 48.19810 | 8.86480 | 21290 ft | 480 kts | 12° |
| 2026-05-05 09:50 | 48.23089 | 8.87516 | 21671 ft | 483 kts | 11° |
| 2026-05-05 09:50 | 48.26384 | 8.88561 | 21847 ft | 485 kts | 12° |
| 2026-05-05 09:50 | 48.29692 | 8.89614 | 21878 ft | 487 kts | 12° |
| 2026-05-05 09:51 | 48.33008 | 8.90673 | 21873 ft | 487 kts | 12° |
| 2026-05-05 09:51 | 48.36317 | 8.91729 | 21875 ft | 486 kts | 12° |
| 2026-05-05 09:51 | 48.39629 | 8.92783 | 21874 ft | 486 kts | 12° |
| 2026-05-05 09:51 | 48.42936 | 8.93836 | 21873 ft | 486 kts | 12° |
| 2026-05-05 09:52 | 48.46247 | 8.94892 | 21874 ft | 486 kts | 12° |
| 2026-05-05 09:52 | 48.49555 | 8.95947 | 21870 ft | 486 kts | 12° |
| 2026-05-05 09:52 | 48.52864 | 8.97000 | 21869 ft | 486 kts | 12° |
| 2026-05-05 09:52 | 48.56172 | 8.98060 | 21864 ft | 486 kts | 12° |
| 2026-05-05 09:53 | 48.59486 | 8.99125 | 21865 ft | 486 kts | 12° |
| 2026-05-05 09:53 | 48.62794 | 9.00186 | 21866 ft | 486 kts | 12° |
| 2026-05-05 09:53 | 48.66095 | 9.01247 | 21864 ft | 486 kts | 12° |
| 2026-05-05 09:53 | 48.69404 | 9.02317 | 21865 ft | 486 kts | 12° |
| 2026-05-05 09:54 | 48.72708 | 9.03391 | 21867 ft | 486 kts | 12° |
| 2026-05-05 09:54 | 48.76015 | 9.04468 | 21864 ft | 486 kts | 12° |
| 2026-05-05 09:54 | 48.79317 | 9.05540 | 21868 ft | 485 kts | 12° |
| 2026-05-05 09:54 | 48.82622 | 9.06609 | 21870 ft | 485 kts | 12° |
| 2026-05-05 09:55 | 48.85923 | 9.07678 | 21871 ft | 485 kts | 12° |
| 2026-05-05 09:55 | 48.89240 | 9.08576 | 21867 ft | 485 kts | 6° |
| 2026-05-05 09:55 | 48.92599 | 9.09056 | 21871 ft | 485 kts | 5° |
| 2026-05-05 09:55 | 48.95954 | 9.09525 | 21875 ft | 485 kts | 5° |
| 2026-05-05 09:56 | 48.99315 | 9.09999 | 21878 ft | 483 kts | 5° |
| 2026-05-05 09:56 | 49.02592 | 9.10467 | 21867 ft | 462 kts | 5° |
| 2026-05-05 09:56 | 49.05726 | 9.10919 | 21870 ft | 442 kts | 5° |
| 2026-05-05 09:56 | 49.08744 | 9.11355 | 21534 ft | 431 kts | 5° |
| 2026-05-05 09:57 | 49.11677 | 9.11773 | 21005 ft | 426 kts | 5° |
| 2026-05-05 09:57 | 49.14605 | 9.12192 | 20435 ft | 423 kts | 5° |
| 2026-05-05 09:57 | 49.17529 | 9.12616 | 19867 ft | 420 kts | 5° |
| 2026-05-05 09:57 | 49.20426 | 9.13035 | 19306 ft | 417 kts | 5° |
| 2026-05-05 09:58 | 49.23310 | 9.13449 | 18754 ft | 414 kts | 5° |
| 2026-05-05 09:58 | 49.26176 | 9.13856 | 18216 ft | 412 kts | 5° |
| 2026-05-05 09:58 | 49.29024 | 9.14260 | 17625 ft | 410 kts | 5° |
| 2026-05-05 09:58 | 49.31849 | 9.14660 | 17080 ft | 406 kts | 5° |
| 2026-05-05 09:59 | 49.34649 | 9.15055 | 16566 ft | 402 kts | 5° |
| 2026-05-05 09:59 | 49.37425 | 9.15449 | 16062 ft | 399 kts | 5° |
| 2026-05-05 09:59 | 49.40173 | 9.15843 | 15568 ft | 395 kts | 4° |
| 2026-05-05 09:59 | 49.42902 | 9.16239 | 15103 ft | 391 kts | 4° |
| 2026-05-05 10:00 | 49.45599 | 9.16628 | 14638 ft | 388 kts | 4° |
| 2026-05-05 10:00 | 49.48278 | 9.17008 | 14180 ft | 385 kts | 4° |
| 2026-05-05 10:00 | 49.50932 | 9.17385 | 13733 ft | 381 kts | 4° |
| 2026-05-05 10:00 | 49.53562 | 9.17765 | 13236 ft | 378 kts | 4° |
| 2026-05-05 10:01 | 49.56168 | 9.18145 | 12740 ft | 374 kts | 4° |
| 2026-05-05 10:01 | 49.58734 | 9.18672 | 12249 ft | 371 kts | 14° |
| 2026-05-05 10:01 | 49.61041 | 9.20332 | 11910 ft | 363 kts | 37° |
| 2026-05-05 10:01 | 49.62740 | 9.23071 | 11865 ft | 345 kts | 55° |
| 2026-05-05 10:02 | 49.64120 | 9.25994 | 11875 ft | 329 kts | 54° |
| 2026-05-05 10:02 | 49.65492 | 9.28712 | 11850 ft | 315 kts | 47° |
| 2026-05-05 10:02 | 49.67246 | 9.30631 | 11592 ft | 308 kts | 21° |
| 2026-05-05 10:02 | 49.69319 | 9.31273 | 11229 ft | 304 kts | 360° |
| 2026-05-05 10:03 | 49.71398 | 9.31263 | 10853 ft | 302 kts | 358° |
| 2026-05-05 10:03 | 49.73499 | 9.31207 | 10491 ft | 301 kts | 358° |
| 2026-05-05 10:03 | 49.75588 | 9.31139 | 10150 ft | 299 kts | 358° |
| 2026-05-05 10:03 | 49.77662 | 9.31059 | 9894 ft | 297 kts | 358° |
| 2026-05-05 10:04 | 49.79731 | 9.30974 | 9872 ft | 298 kts | 358° |
| 2026-05-05 10:04 | 49.81781 | 9.30886 | 9881 ft | 291 kts | 358° |
| 2026-05-05 10:04 | 49.83792 | 9.30800 | 9874 ft | 288 kts | 358° |
| 2026-05-05 10:04 | 49.85789 | 9.30714 | 9798 ft | 286 kts | 358° |
| 2026-05-05 10:05 | 49.87742 | 9.30327 | 9438 ft | 282 kts | 339° |
| 2026-05-05 10:05 | 49.89417 | 9.28813 | 9048 ft | 279 kts | 319° |
| 2026-05-05 10:05 | 49.90846 | 9.26793 | 8650 ft | 277 kts | 314° |
| 2026-05-05 10:05 | 49.92225 | 9.24708 | 8273 ft | 276 kts | 314° |
| 2026-05-05 10:06 | 49.93593 | 9.22625 | 7912 ft | 275 kts | 314° |
| 2026-05-05 10:06 | 49.94954 | 9.20550 | 7561 ft | 273 kts | 314° |
| 2026-05-05 10:06 | 49.96307 | 9.18485 | 7214 ft | 272 kts | 314° |
| 2026-05-05 10:06 | 49.97657 | 9.16428 | 6849 ft | 271 kts | 314° |
| 2026-05-05 10:07 | 49.99000 | 9.14384 | 6493 ft | 270 kts | 314° |
| 2026-05-05 10:07 | 50.00338 | 9.12349 | 6146 ft | 268 kts | 314° |
| 2026-05-05 10:07 | 50.01670 | 9.10333 | 5821 ft | 267 kts | 314° |
| 2026-05-05 10:07 | 50.03070 | 9.08461 | 5451 ft | 266 kts | 329° |
| 2026-05-05 10:08 | 50.04786 | 9.07419 | 5123 ft | 265 kts | 342° |
| 2026-05-05 10:08 | 50.06533 | 9.06649 | 5005 ft | 255 kts | 344° |
| 2026-05-05 10:08 | 50.08174 | 9.05953 | 5014 ft | 235 kts | 344° |
| 2026-05-05 10:08 | 50.09694 | 9.05312 | 5017 ft | 217 kts | 344° |
| 2026-05-05 10:09 | 50.11090 | 9.04727 | 5020 ft | 202 kts | 344° |
| 2026-05-05 10:09 | 50.12344 | 9.03847 | 5013 ft | 197 kts | 320° |
| 2026-05-05 10:09 | 50.13213 | 9.02231 | 5017 ft | 195 kts | 295° |
| 2026-05-05 10:09 | 50.13561 | 9.00221 | 5013 ft | 192 kts | 271° |
| 2026-05-05 10:10 | 50.13344 | 8.98221 | 5007 ft | 190 kts | 248° |
| 2026-05-05 10:10 | 50.12894 | 8.96310 | 5002 ft | 183 kts | 249° |
| 2026-05-05 10:10 | 50.12473 | 8.94510 | 4993 ft | 172 kts | 248° |
| 2026-05-05 10:10 | 50.12064 | 8.92768 | 4864 ft | 170 kts | 249° |
| 2026-05-05 10:11 | 50.11658 | 8.91039 | 4664 ft | 169 kts | 249° |
| 2026-05-05 10:11 | 50.11254 | 8.89318 | 4456 ft | 169 kts | 249° |
| 2026-05-05 10:11 | 50.10852 | 8.87604 | 4231 ft | 168 kts | 249° |
| 2026-05-05 10:11 | 50.10449 | 8.85891 | 4001 ft | 168 kts | 249° |
| 2026-05-05 10:12 | 50.10047 | 8.84183 | 3791 ft | 168 kts | 249° |
| 2026-05-05 10:12 | 50.09646 | 8.82478 | 3558 ft | 167 kts | 249° |
| 2026-05-05 10:12 | 50.09244 | 8.80773 | 3339 ft | 167 kts | 249° |
| 2026-05-05 10:12 | 50.08842 | 8.79071 | 3117 ft | 167 kts | 249° |
| 2026-05-05 10:13 | 50.08442 | 8.77375 | 2892 ft | 167 kts | 249° |
| 2026-05-05 10:13 | 50.08044 | 8.75688 | 2690 ft | 162 kts | 249° |
| 2026-05-05 10:13 | 50.07667 | 8.74094 | 2468 ft | 152 kts | 249° |
| 2026-05-05 10:13 | 50.07343 | 8.72539 | 2269 ft | 150 kts | 258° |
| 2026-05-05 10:14 | 50.07212 | 8.70931 | 2072 ft | 149 kts | 263° |
| 2026-05-05 10:14 | 50.07006 | 8.69365 | 1842 ft | 147 kts | 253° |
| 2026-05-05 10:14 | 50.06678 | 8.67864 | 1677 ft | 146 kts | 248° |
| 2026-05-05 10:14 | 50.06348 | 8.66371 | 1490 ft | 146 kts | 248° |
| 2026-05-05 10:15 | 50.05993 | 8.64897 | 1294 ft | 145 kts | 250° |
| 2026-05-05 10:15 | 50.05646 | 8.63430 | 1075 ft | 144 kts | 250° |
| 2026-05-05 10:15 | 50.05302 | 8.61966 | 877 ft | 144 kts | 249° |
| 2026-05-05 10:15 | 50.04950 | 8.60510 | 666 ft | 144 kts | 251° |
| 2026-05-05 10:16 | 50.04602 | 8.59055 | 461 ft | 143 kts | 249° |
| 2026-05-05 10:16 | 50.04262 | 8.57639 | 367 ft | 131 kts | 248° |
| 2026-05-05 10:16 | 50.04003 | 8.56564 | 360 ft | 79 kts | 249° |
| 2026-05-05 10:16 | 50.03890 | 8.56030 | 357 ft | 33 kts | 260° |
| 2026-05-05 10:17 | 50.03898 | 8.55745 | 356 ft | 19 kts | 279° |
| 2026-05-05 10:17 | 50.03918 | 8.55645 | 352 ft | 7 kts | 319° |
| 2026-05-05 10:17 | 50.03927 | 8.55638 | 358 ft | 0 kts | 335° |
| 2026-05-05 10:18 | 50.03930 | 8.55635 | 358 ft | 3 kts | 337° |
| 2026-05-05 10:18 | 50.03975 | 8.55661 | 351 ft | 9 kts | 47° |
| 2026-05-05 10:18 | 50.04012 | 8.55795 | 356 ft | 19 kts | 69° |
| 2026-05-05 10:18 | 50.04058 | 8.55993 | 353 ft | 19 kts | 70° |
| 2026-05-05 10:19 | 50.04103 | 8.56180 | 359 ft | 18 kts | 70° |
| 2026-05-05 10:19 | 50.04156 | 8.56402 | 360 ft | 27 kts | 70° |
| 2026-05-05 10:19 | 50.04220 | 8.56667 | 364 ft | 26 kts | 69° |
| 2026-05-05 10:19 | 50.04279 | 8.56915 | 359 ft | 24 kts | 70° |
| 2026-05-05 10:20 | 50.04335 | 8.57151 | 361 ft | 23 kts | 70° |
| 2026-05-05 10:20 | 50.04396 | 8.57404 | 361 ft | 26 kts | 69° |
| 2026-05-05 10:20 | 50.04456 | 8.57656 | 365 ft | 24 kts | 70° |
| 2026-05-05 10:20 | 50.04512 | 8.57893 | 365 ft | 20 kts | 69° |
| 2026-05-05 10:21 | 50.04566 | 8.58030 | 364 ft | 13 kts | 9° |
| 2026-05-05 10:21 | 50.04665 | 8.57985 | 361 ft | 16 kts | 339° |
| 2026-05-05 10:21 | 50.04775 | 8.57921 | 358 ft | 17 kts | 339° |
| 2026-05-05 10:21 | 50.04856 | 8.57804 | 359 ft | 16 kts | 294° |
| 2026-05-05 10:22 | 50.04900 | 8.57646 | 360 ft | 16 kts | 294° |
| 2026-05-05 10:22 | 50.04934 | 8.57528 | 360 ft | 7 kts | 285° |
| 2026-05-05 10:22 | 50.04911 | 8.57474 | 360 ft | 6 kts | 219° |
| 2026-05-05 10:22 | 50.04888 | 8.57447 | 358 ft | 1 kts | 218° |
| 2026-05-05 10:23 | 50.04884 | 8.57441 | 359 ft | 1 kts | 217° |
| 2026-05-05 10:23 | 50.04883 | 8.57441 | 359 ft | 0 kts | 217° |